createdAt,value
2022-12-09T00:00:55.807Z,53.15
2022-12-09T00:03:31.122Z,53.91
2022-12-09T00:06:29.906Z,54.45
2022-12-09T00:09:04.855Z,55.16
2022-12-09T00:11:52.769Z,55.93
2022-12-09T00:14:27.979Z,56.43
2022-12-09T00:17:15.694Z,57.01
2022-12-09T00:20:03.913Z,57.72
2022-12-09T00:22:39.313Z,58.79
2022-12-09T00:25:27.653Z,59.62
2022-12-09T00:28:22.817Z,60.48
2022-12-09T00:31:11.702Z,60.57
2022-12-09T00:33:46.868Z,60.68
2022-12-09T00:36:36.805Z,60.56
2022-12-09T00:39:12.697Z,60.37
2022-12-09T00:42:00.616Z,60.51
2022-12-09T00:44:35.764Z,61.69
2022-12-09T00:47:23.901Z,72.62
2022-12-09T00:49:58.774Z,70.25
2022-12-09T00:53:43.660Z,56.57
2022-12-09T00:56:31.880Z,48.54
2022-12-09T00:59:20.004Z,49.86
2022-12-09T01:01:54.975Z,50.46
2022-12-09T01:04:42.771Z,52.13
2022-12-09T01:07:37.822Z,53.62
2022-12-09T01:10:32.735Z,54.63
2022-12-09T01:13:28.764Z,54.97
2022-12-09T01:16:31.696Z,55.68
2022-12-09T01:19:08.965Z,56.40
2022-12-09T01:22:03.606Z,56.89
2022-12-09T01:24:58.586Z,57.31
2022-12-09T01:27:46.896Z,58.32
2022-12-09T01:30:28.619Z,58.89
2022-12-09T01:33:23.757Z,59.25
2022-12-09T01:36:24.668Z,59.55
2022-12-09T01:39:19.589Z,59.81
2022-12-09T01:42:19.867Z,60.46
2022-12-09T01:45:39.638Z,60.05
2022-12-09T01:48:37.651Z,59.82
2022-12-09T01:51:33.579Z,60.00
2022-12-09T01:54:21.962Z,60.93
2022-12-09T01:56:56.772Z,71.37
2022-12-09T01:59:44.798Z,72.01
2022-12-09T02:02:40.837Z,57.70
2022-12-09T02:05:35.820Z,46.94
2022-12-09T02:08:26.424Z,46.64
2022-12-09T02:11:24.960Z,47.93
2022-12-09T02:14:28.754Z,50.41
2022-12-09T02:17:28.845Z,51.81
2022-12-09T02:20:14.608Z,52.91
2022-12-09T02:23:14.579Z,52.66
2022-12-09T02:26:50.745Z,53.17
2022-12-09T02:30:11.023Z,54.74
2022-12-09T02:33:15.707Z,56.33
2022-12-09T02:36:19.571Z,57.62
2022-12-09T02:39:07.571Z,58.41
2022-12-09T02:41:44.903Z,59.72
2022-12-09T02:44:32.572Z,60.90
2022-12-09T02:47:14.711Z,71.15
2022-12-09T02:50:14.895Z,71.82
2022-12-09T02:53:06.583Z,59.40
2022-12-09T02:55:48.577Z,49.56
2022-12-09T02:58:43.595Z,49.80
2022-12-09T03:01:56.097Z,52.59
2022-12-09T03:04:52.901Z,54.17
2022-12-09T03:08:11.855Z,56.09
2022-12-09T03:11:12.029Z,56.08
2022-12-09T03:14:16.588Z,55.75
2022-12-09T03:17:21.826Z,55.36
2022-12-09T03:20:26.595Z,55.56
2022-12-09T03:23:22.851Z,56.18
2022-12-09T03:26:12.594Z,56.82
2022-12-09T03:29:08.683Z,57.45
2022-12-09T03:32:04.724Z,57.96
2022-12-09T03:35:01.731Z,58.27
2022-12-09T03:37:57.636Z,59.23
2022-12-09T03:40:46.572Z,60.15
2022-12-09T03:43:26.082Z,61.12
2022-12-09T03:46:13.803Z,71.16
2022-12-09T03:48:48.737Z,71.55
2022-12-09T03:51:43.806Z,58.66
2022-12-09T03:54:42.736Z,48.46
2022-12-09T03:57:37.722Z,49.27
2022-12-09T04:00:33.625Z,52.78
2022-12-09T04:03:21.732Z,53.92
2022-12-09T04:05:56.720Z,55.52
2022-12-09T04:08:44.901Z,56.74
2022-12-09T04:11:26.699Z,57.75
2022-12-09T04:14:21.781Z,58.32
2022-12-09T04:17:09.814Z,58.37
2022-12-09T04:19:45.079Z,59.27
2022-12-09T04:22:33.589Z,60.04
2022-12-09T04:25:08.816Z,60.34
2022-12-09T04:27:57.096Z,60.86
2022-12-09T04:30:52.859Z,61.32
2022-12-09T04:33:47.941Z,74.11
2022-12-09T04:36:42.812Z,69.43
2022-12-09T04:39:37.557Z,53.99
2022-12-09T04:42:32.696Z,51.04
2022-12-09T04:45:27.565Z,52.63
2022-12-09T04:48:22.875Z,54.43
2022-12-09T04:51:18.901Z,56.34
2022-12-09T04:54:06.763Z,57.48
2022-12-09T04:56:41.939Z,58.83
2022-12-09T04:59:30.135Z,59.65
2022-12-09T05:02:04.991Z,59.55
2022-12-09T05:04:53.970Z,60.08
2022-12-09T05:07:32.087Z,60.66
2022-12-09T05:10:27.995Z,61.42
2022-12-09T05:13:16.694Z,73.45
2022-12-09T05:16:20.752Z,70.22
2022-12-09T05:19:15.865Z,54.62
2022-12-09T05:22:03.565Z,49.31
2022-12-09T05:24:45.687Z,50.92
2022-12-09T05:27:40.613Z,52.91
2022-12-09T05:30:35.793Z,54.34
2022-12-09T05:33:31.158Z,56.31
2022-12-09T05:36:27.801Z,57.13
2022-12-09T05:39:15.852Z,58.01
2022-12-09T05:41:50.714Z,58.17
2022-12-09T05:44:38.573Z,58.68
2022-12-09T05:47:14.198Z,59.18
2022-12-09T05:50:07.596Z,59.36
2022-12-09T05:52:44.993Z,60.24
2022-12-09T05:55:32.736Z,60.91
2022-12-09T05:58:27.701Z,61.09
2022-12-09T06:01:23.760Z,72.89
2022-12-09T06:04:12.865Z,68.85
2022-12-09T06:06:47.984Z,54.18
2022-12-09T06:09:42.774Z,50.50
2022-12-09T06:12:37.834Z,51.96
2022-12-09T06:15:31.245Z,53.15
2022-12-09T06:18:22.133Z,53.88
2022-12-09T06:20:56.728Z,55.64
2022-12-09T06:23:47.644Z,57.44
2022-12-09T06:26:33.804Z,58.61
2022-12-09T06:29:21.881Z,59.46
2022-12-09T06:32:03.602Z,60.05
2022-12-09T06:34:58.869Z,60.20
2022-12-09T06:37:46.594Z,60.63
2022-12-09T06:40:31.740Z,61.51
2022-12-09T06:43:26.577Z,61.10
2022-12-09T06:46:32.791Z,71.76
2022-12-09T06:49:21.675Z,67.93
2022-12-09T06:51:56.936Z,53.14
2022-12-09T06:54:46.136Z,49.80
2022-12-09T06:57:21.196Z,51.92
2022-12-09T07:00:12.049Z,53.31
2022-12-09T07:02:53.971Z,54.38
2022-12-09T07:05:50.931Z,55.22
2022-12-09T07:08:45.596Z,55.54
2022-12-09T07:11:40.939Z,56.25
2022-12-09T07:14:30.094Z,56.87
2022-12-09T07:17:34.033Z,57.83
2022-12-09T07:20:29.880Z,57.84
2022-12-09T07:23:24.824Z,58.03
2022-12-09T07:26:19.958Z,58.33
2022-12-09T07:29:17.784Z,58.86
2022-12-09T07:32:12.587Z,59.42
2022-12-09T07:35:08.410Z,60.80
2022-12-09T07:38:03.762Z,72.18
2022-12-09T07:40:52.131Z,72.06
2022-12-09T07:43:41.732Z,59.00
2022-12-09T07:46:17.331Z,49.90
2022-12-09T07:49:12.854Z,50.63
2022-12-09T07:52:07.745Z,52.37
2022-12-09T07:55:06.330Z,54.11
2022-12-09T07:58:01.681Z,55.47
2022-12-09T08:00:57.178Z,56.58
2022-12-09T08:03:46.849Z,57.26
2022-12-09T08:06:43.797Z,57.93
2022-12-09T08:09:32.053Z,58.11
2022-12-09T08:12:13.671Z,58.42
2022-12-09T08:15:09.256Z,58.29
2022-12-09T08:18:04.776Z,58.34
2022-12-09T08:20:59.595Z,58.70
2022-12-09T08:23:49.387Z,59.37
2022-12-09T08:26:28.798Z,59.81
2022-12-09T08:29:27.805Z,60.46
2022-12-09T08:32:22.631Z,60.69
2022-12-09T08:35:21.761Z,60.86
2022-12-09T08:38:16.737Z,61.22
2022-12-09T08:41:05.582Z,72.47
2022-12-09T08:43:40.776Z,68.93
2022-12-09T08:46:28.616Z,53.66
2022-12-09T08:49:04.201Z,49.18
2022-12-09T08:51:53.796Z,50.09
2022-12-09T08:54:29.440Z,52.17
2022-12-09T08:57:19.850Z,54.81
2022-12-09T08:59:55.100Z,57.33
2022-12-09T09:02:43.155Z,58.63
2022-12-09T09:05:18.992Z,58.70
2022-12-09T09:08:06.713Z,58.62
2022-12-09T09:10:42.735Z,59.08
2022-12-09T09:13:32.638Z,59.65
2022-12-09T09:16:10.436Z,60.71
2022-12-09T09:19:00.132Z,61.00
2022-12-09T09:21:41.762Z,69.28
2022-12-09T09:24:38.572Z,71.02
2022-12-09T09:27:27.703Z,55.10
2022-12-09T09:30:04.699Z,47.52
2022-12-09T09:33:00.058Z,48.23
2022-12-09T09:35:55.524Z,49.96
2022-12-09T09:38:43.964Z,51.19
2022-12-09T09:41:34.862Z,52.01
2022-12-09T09:44:43.950Z,53.23
2022-12-09T09:47:51.059Z,53.52
2022-12-09T09:51:00.773Z,54.38
2022-12-09T09:53:56.606Z,55.31
2022-12-09T09:56:59.519Z,55.62
2022-12-09T10:00:22.867Z,56.22
2022-12-09T10:03:25.296Z,55.52
2022-12-09T10:06:30.680Z,55.50
2022-12-09T10:09:40.735Z,56.43
2022-12-09T10:12:41.629Z,57.20
2022-12-09T10:15:43.040Z,56.71
2022-12-09T10:18:49.863Z,57.05
2022-12-09T10:21:46.805Z,56.41
2022-12-09T10:24:40.903Z,58.70
2022-12-09T10:27:34.963Z,58.48
2022-12-09T10:30:29.972Z,57.58
2022-12-09T10:33:08.823Z,58.17
2022-12-09T10:35:56.940Z,58.74
2022-12-09T10:38:39.712Z,58.13
2022-12-09T10:42:00.627Z,58.33
2022-12-09T10:44:55.961Z,57.76
2022-12-09T10:47:43.702Z,57.81
2022-12-09T10:50:34.232Z,58.03
2022-12-09T10:53:29.910Z,58.11
2022-12-09T10:56:31.525Z,58.87
2022-12-09T10:59:42.607Z,59.03
2022-12-09T11:02:37.655Z,58.98
2022-12-09T11:05:41.538Z,59.98
2022-12-09T11:08:37.103Z,59.54
2022-12-09T11:11:33.033Z,59.54
2022-12-09T11:14:51.782Z,59.71
2022-12-09T11:17:43.008Z,59.67
2022-12-09T11:20:27.354Z,60.27
2022-12-09T11:23:18.933Z,61.13
2022-12-09T11:26:02.742Z,61.39
2022-12-09T11:28:50.562Z,68.22
2022-12-09T11:31:35.653Z,70.66
2022-12-09T11:34:35.951Z,52.21
2022-12-09T11:37:30.486Z,48.05
2022-12-09T11:40:33.608Z,48.55
2022-12-09T11:43:28.480Z,50.05
2022-12-09T11:46:26.585Z,51.08
2022-12-09T11:49:30.581Z,51.68
2022-12-09T11:52:31.524Z,52.19
2022-12-09T11:55:45.572Z,52.55
2022-12-09T11:58:41.498Z,53.09
2022-12-09T12:01:41.579Z,53.31
2022-12-09T12:04:40.509Z,55.06
2022-12-09T12:07:55.662Z,54.98
2022-12-09T12:10:54.576Z,57.30
2022-12-09T12:13:52.548Z,56.80
2022-12-09T12:16:42.227Z,56.21
2022-12-09T12:19:36.512Z,56.85
2022-12-09T12:22:36.636Z,57.43
2022-12-09T12:25:37.574Z,57.19
2022-12-09T12:28:36.708Z,57.48
2022-12-09T12:31:45.555Z,58.15
2022-12-09T12:35:04.522Z,58.40
2022-12-09T12:38:17.476Z,58.87
2022-12-09T12:41:30.472Z,59.40
2022-12-09T12:44:55.518Z,60.62
2022-12-09T12:47:46.526Z,60.05
2022-12-09T12:50:55.459Z,60.13
2022-12-09T12:53:39.474Z,60.32
2022-12-09T12:56:46.485Z,60.83
2022-12-09T13:00:35.464Z,60.86
2022-12-09T13:03:33.523Z,60.79
2022-12-09T13:06:23.508Z,61.21
2022-12-09T13:09:12.571Z,61.52
2022-12-09T13:12:14.535Z,61.66
2022-12-09T13:15:09.537Z,61.68
2022-12-09T13:18:04.541Z,72.68
2022-12-09T13:21:07.474Z,68.32
2022-12-09T13:24:33.677Z,51.46
2022-12-09T13:27:54.457Z,49.45
2022-12-09T13:30:54.439Z,50.90
2022-12-09T13:34:09.475Z,52.06
2022-12-09T13:36:57.498Z,53.22
2022-12-09T13:39:54.459Z,54.31
2022-12-09T13:43:02.442Z,55.08
2022-12-09T13:45:57.551Z,55.65
2022-12-09T13:48:56.456Z,56.42
2022-12-09T13:51:58.518Z,57.02
2022-12-09T13:55:01.507Z,57.47
2022-12-09T13:58:10.539Z,58.22
2022-12-09T14:01:28.457Z,58.76
2022-12-09T14:04:32.456Z,59.38
2022-12-09T14:07:27.456Z,60.43
2022-12-09T14:11:08.464Z,60.89
2022-12-09T14:14:03.578Z,60.81
2022-12-09T14:16:58.682Z,72.53
2022-12-09T14:20:03.514Z,69.50
2022-12-09T14:23:18.486Z,53.35
2022-12-09T14:26:14.464Z,50.08
2022-12-09T14:29:09.514Z,51.77
2022-12-09T14:31:57.551Z,53.16
2022-12-09T14:34:44.506Z,54.80
2022-12-09T14:37:39.584Z,55.61
2022-12-09T14:41:12.492Z,55.94
2022-12-09T14:44:30.613Z,56.72
2022-12-09T14:47:41.552Z,57.26
2022-12-09T14:50:37.524Z,58.40
2022-12-09T14:53:31.488Z,59.04
2022-12-09T14:56:34.510Z,59.84
2022-12-09T14:59:38.493Z,60.87
2022-12-09T15:02:41.566Z,73.89
2022-12-09T15:05:36.526Z,69.91
2022-12-09T15:08:51.548Z,55.39
2022-12-09T15:11:48.609Z,49.21
2022-12-09T15:14:43.540Z,50.83
2022-12-09T15:17:45.620Z,52.59
2022-12-09T15:20:46.498Z,53.92
2022-12-09T15:23:45.921Z,54.87
2022-12-09T15:26:45.459Z,55.74
2022-12-09T15:29:46.102Z,56.30
2022-12-09T15:32:43.494Z,57.34
2022-12-09T15:35:41.526Z,58.45
2022-12-09T15:38:34.624Z,59.18
2022-12-09T15:41:51.494Z,60.32
2022-12-09T15:45:20.357Z,60.80
2022-12-09T15:48:30.757Z,75.68
2022-12-09T15:51:23.455Z,65.87
2022-12-09T15:54:02.005Z,52.68
2022-12-09T15:56:53.448Z,50.63
2022-12-09T16:00:07.749Z,51.56
2022-12-09T16:02:55.565Z,54.21
2022-12-09T16:05:35.966Z,55.66
2022-12-09T16:08:26.500Z,56.47
2022-12-09T16:11:01.623Z,57.67
2022-12-09T16:14:06.455Z,58.82
2022-12-09T16:16:53.572Z,59.58
2022-12-09T16:19:43.457Z,60.21
2022-12-09T16:22:18.580Z,70.69
2022-12-09T16:25:28.669Z,72.21
2022-12-09T16:28:26.892Z,59.62
2022-12-09T16:31:24.508Z,50.29
2022-12-09T16:34:19.451Z,51.16
2022-12-09T16:37:04.060Z,53.17
2022-12-09T16:39:56.440Z,54.76
2022-12-09T16:42:41.035Z,56.07
2022-12-09T16:45:43.456Z,57.49
2022-12-09T16:48:40.475Z,59.21
2022-12-09T16:51:38.428Z,59.84
2022-12-09T16:54:33.431Z,66.78
2022-12-09T16:57:31.705Z,73.00
2022-12-09T17:01:18.480Z,61.39
2022-12-09T17:04:01.648Z,50.21
2022-12-09T17:06:53.949Z,51.09
2022-12-09T17:09:28.632Z,53.70
2022-12-09T17:12:16.954Z,56.24
2022-12-09T17:15:11.541Z,56.43
2022-12-09T17:18:00.572Z,58.11
2022-12-09T17:20:45.435Z,59.46
2022-12-09T17:23:41.432Z,60.64
2022-12-09T17:26:36.656Z,66.54
2022-12-09T17:29:31.453Z,74.90
2022-12-09T17:32:26.474Z,62.69
2022-12-09T17:35:22.865Z,52.07
2022-12-09T17:38:17.444Z,50.93
2022-12-09T17:41:11.636Z,53.38
2022-12-09T17:43:47.301Z,54.62
2022-12-09T17:46:36.453Z,56.72
2022-12-09T17:49:11.575Z,58.46
2022-12-09T17:52:00.424Z,60.17
2022-12-09T17:54:42.453Z,64.86
2022-12-09T17:57:39.432Z,73.68
2022-12-09T18:00:34.435Z,61.33
2022-12-09T18:03:54.465Z,51.74
2022-12-09T18:06:41.499Z,51.48
2022-12-09T18:09:25.434Z,54.38
2022-12-09T18:12:21.463Z,56.63
2022-12-09T18:15:18.991Z,59.13
2022-12-09T18:18:15.830Z,61.18
2022-12-09T18:21:16.230Z,70.88
2022-12-09T18:24:07.446Z,66.09
2022-12-09T18:26:44.031Z,55.78
2022-12-09T18:29:34.707Z,53.20
2022-12-09T18:32:09.596Z,55.54
2022-12-09T18:35:04.434Z,58.31
2022-12-09T18:38:07.212Z,59.37
2022-12-09T18:41:09.850Z,71.41
2022-12-09T18:44:06.555Z,66.12
2022-12-09T18:46:57.969Z,56.21
2022-12-09T18:49:33.754Z,53.06
2022-12-09T18:52:22.082Z,54.93
2022-12-09T18:55:04.916Z,56.57
2022-12-09T18:57:55.748Z,60.13
2022-12-09T19:00:30.839Z,66.09
2022-12-09T19:03:20.103Z,67.84
2022-12-09T19:06:04.823Z,59.73
2022-12-09T19:09:05.442Z,51.40
2022-12-09T19:12:16.458Z,52.78
2022-12-09T19:14:54.557Z,55.66
2022-12-09T19:20:34.828Z,60.55
2022-12-09T19:23:24.524Z,69.62
2022-12-09T19:25:59.866Z,65.87
2022-12-09T19:28:54.605Z,55.11
2022-12-09T19:31:42.819Z,53.53
2022-12-09T19:34:35.535Z,56.36
2022-12-09T19:37:10.846Z,60.06
2022-12-09T19:39:59.396Z,66.31
2022-12-09T19:42:41.404Z,69.03
2022-12-09T19:45:22.852Z,60.47
2022-12-09T19:48:10.425Z,52.90
2022-12-09T19:50:52.430Z,52.61
2022-12-09T19:53:50.401Z,54.68
2022-12-09T19:56:46.630Z,57.48
2022-12-09T19:59:35.541Z,61.30
2022-12-09T20:02:31.430Z,68.87
2022-12-09T20:05:30.885Z,66.25
2022-12-09T20:08:30.641Z,54.20
2022-12-09T20:11:33.524Z,53.66
2022-12-09T20:14:39.453Z,55.63
2022-12-09T20:17:28.099Z,59.51
2022-12-09T20:20:06.224Z,61.17
2022-12-09T20:23:01.502Z,71.45
2022-12-09T20:25:58.535Z,66.88
2022-12-09T20:28:47.412Z,54.54
2022-12-09T20:31:28.759Z,53.79
2022-12-09T20:34:23.419Z,56.38
2022-12-09T20:37:03.510Z,59.17
2022-12-09T20:40:01.416Z,60.82
2022-12-09T20:42:58.603Z,71.18
2022-12-09T20:45:53.450Z,68.30
2022-12-09T20:48:51.393Z,56.06
2022-12-09T20:51:52.381Z,52.06
2022-12-09T20:54:48.451Z,56.90
2022-12-09T20:57:43.552Z,59.42
2022-12-09T21:00:31.397Z,68.51
2022-12-09T21:03:13.456Z,63.68
2022-12-09T21:06:10.406Z,53.30
2022-12-09T21:09:00.394Z,52.51
2022-12-09T21:11:56.393Z,56.45
2022-12-09T21:14:51.381Z,58.71
2022-12-09T21:17:46.381Z,68.32
2022-12-09T21:20:44.211Z,65.69
2022-12-09T21:23:39.380Z,53.51
2022-12-09T21:26:35.403Z,53.17
2022-12-09T21:29:32.348Z,55.99
2022-12-09T21:32:27.397Z,59.14
2022-12-09T21:35:23.390Z,68.41
2022-12-09T21:38:18.382Z,66.10
2022-12-09T21:41:23.421Z,53.80
2022-12-09T21:44:12.445Z,52.64
2022-12-09T21:46:47.883Z,55.17
2022-12-09T21:49:36.538Z,58.26
2022-12-09T21:52:31.452Z,60.95
2022-12-09T21:55:26.470Z,70.11
2022-12-09T21:58:21.491Z,64.93
2022-12-09T22:01:23.426Z,54.52
2022-12-09T22:03:58.580Z,53.44
2022-12-09T22:06:46.391Z,55.86
2022-12-09T22:09:41.374Z,59.54
2022-12-09T22:12:36.481Z,63.62
2022-12-09T22:15:31.359Z,71.01
2022-12-09T22:18:26.527Z,60.96
2022-12-09T22:21:25.267Z,52.00
2022-12-09T22:24:21.376Z,54.10
2022-12-09T22:27:09.358Z,56.66
2022-12-09T22:29:44.554Z,60.00
2022-12-09T22:32:36.464Z,65.70
2022-12-09T22:35:14.579Z,65.73
2022-12-09T22:38:08.792Z,56.61
2022-12-09T22:40:53.458Z,53.62
2022-12-09T22:43:38.067Z,55.86
2022-12-09T22:46:29.473Z,60.80
2022-12-09T22:49:14.148Z,68.03
2022-12-09T22:52:02.355Z,63.68
2022-12-09T22:54:37.544Z,54.44
2022-12-09T22:57:32.377Z,53.24
2022-12-09T23:00:27.359Z,57.38
2022-12-09T23:03:15.517Z,57.94
2022-12-09T23:05:57.372Z,65.06
2022-12-09T23:08:47.367Z,68.46
2022-12-09T23:11:28.541Z,60.95
2022-12-09T23:14:16.356Z,52.77
2022-12-09T23:17:11.363Z,52.87
2022-12-09T23:20:06.607Z,58.05
2022-12-09T23:23:01.375Z,59.75
2022-12-09T23:25:49.367Z,65.86
2022-12-09T23:28:24.698Z,68.74
2022-12-09T23:31:15.384Z,60.56
2022-12-09T23:34:10.345Z,52.32
2022-12-09T23:37:05.360Z,55.45
2022-12-09T23:40:00.352Z,58.37
2022-12-09T23:42:55.361Z,62.84
2022-12-09T23:45:43.565Z,69.89
2022-12-09T23:48:25.350Z,59.78
2022-12-09T23:51:28.352Z,53.35
2022-12-09T23:54:23.345Z,56.61
2022-12-09T23:57:18.352Z,58.33
